INFORMAÇÕES METEOROLÓGICAS
METAR FOR SAEZ
ADDS - METARS form results

(1414 UTC 20 April 2018)
Data provider http://aviationweather.gov/adds/metars/
 
METAR text: SAEZ 201400Z 02004KT 3000 -RA BKN015 OVC070 23/22 Q1012 NOSIG
Conditions at: SAEZ (BUENOS AIRES/EZE, AR) observed 1400 UTC 20 April 2018
Temperature: 23.0°C (73°F)
Dewpoint: 22.0°C (72°F) [RH = 94%]
Pressure (altimeter): 29.88 inches Hg (1012.0 mb)
Winds: from the NNE (20 degrees) at 5 MPH (4 knots; 2.1 m/s)
Visibility: 1.86 miles (2.99 km)
Ceiling: 1500 feet AGL
Clouds: broken clouds at 1500 feet AGL
overcast cloud deck at 7000 feet AGL
Weather: -RA  (light rain)

Forecast for: SAEZ (BUENOS AIRES/EZE, AR)
Text: TAF SAEZ 201100Z 2012/2112 VRB05KT 5000 SHRA BKN010 FEW050CB OVC060 TX25/2018Z TN20/2109Z
Forecast period: 1200 to 1300 UTC 20 April 2018
Forecast type: FROM: standard forecast or significant change
Winds: variable direction winds at 6 MPH (5 knots; 2.6 m/s)
Visibility: 3 miles (5 km)
Ceiling: 1000 feet AGL
Clouds: broken clouds at 1000 feet AGL
few clouds at 5000 feet AGL
overcast cloud deck at 6000 feet AGL
Weather: SHRA  (rain showers)
Forecast for: SAEZ (BUENOS AIRES/EZE, AR)
Text: TAF SAEZ 201100Z 2012/2112 VRB05KT 5000 SHRA BKN010 FEW050CB OVC060 TX25/2018Z TN20/2109Z
Forecast period: 1200 to 1300 UTC 20 April 2018
Forecast type: FROM: standard forecast or significant change
Winds: variable direction winds at 6 MPH (5 knots; 2.6 m/s)
Visibility: 3 miles (5 km)
Ceiling: 1000 feet AGL
Clouds: broken clouds at 1000 feet AGL
few clouds at 5000 feet AGL
overcast cloud deck at 6000 feet AGL
Weather: SHRA  (rain showers)
Forecast for: SAEZ (BUENOS AIRES/EZE, AR)
Text: TAF SAEZ 201100Z 2012/2112 VRB05KT 5000 SHRA BKN010 FEW050CB OVC060 TX25/2018Z TN20/2109Z
Forecast period: 1300 to 1800 UTC 20 April 2018
Forecast type: BECOMING: Conditions expected to become as follows by 1600 UTC 20 April 2018
Winds: variable direction winds at 6 MPH (5 knots; 2.6 m/s)
Visibility: 5 miles (8 km)
Ceiling: 4000 feet AGL
Clouds: scattered clouds at 1000 feet AGL
broken clouds at 4000 feet AGL
Weather: RA DZ  (rain, drizzle)
Forecast for: SAEZ (BUENOS AIRES/EZE, AR)
Text: TAF SAEZ 201100Z 2012/2112 VRB05KT 5000 SHRA BKN010 FEW050CB OVC060 TX25/2018Z TN20/2109Z
Forecast period: 1300 to 1800 UTC 20 April 2018
Forecast type: BECOMING: Conditions expected to become as follows by 1600 UTC 20 April 2018
Winds: variable direction winds at 6 MPH (5 knots; 2.6 m/s)
Visibility: 5 miles (8 km)
Ceiling: 4000 feet AGL
Clouds: scattered clouds at 1000 feet AGL
broken clouds at 4000 feet AGL
Weather: RA DZ  (rain, drizzle)
Forecast for: SAEZ (BUENOS AIRES/EZE, AR)
Text: TAF SAEZ 201100Z 2012/2112 VRB05KT 5000 SHRA BKN010 FEW050CB OVC060 TX25/2018Z TN20/2109Z
Forecast period: 1800 UTC 20 April 2018 to 0000 UTC 21 April 2018
Forecast type: BECOMING: Conditions expected to become as follows by 2100 UTC 20 April 2018
Winds: from the NE (50 degrees) at 8 MPH (7 knots; 3.6 m/s)
Visibility: 5 miles (8 km)
Ceiling: 3000 feet AGL
Clouds: broken clouds at 3000 feet AGL
few clouds at 5000 feet AGL
Weather: SHRA  (rain showers)
Forecast for: SAEZ (BUENOS AIRES/EZE, AR)
Text: TAF SAEZ 201100Z 2012/2112 VRB05KT 5000 SHRA BKN010 FEW050CB OVC060 TX25/2018Z TN20/2109Z
Forecast period: 1800 UTC 20 April 2018 to 0000 UTC 21 April 2018
Forecast type: BECOMING: Conditions expected to become as follows by 2100 UTC 20 April 2018
Winds: from the NE (50 degrees) at 8 MPH (7 knots; 3.6 m/s)
Visibility: 5 miles (8 km)
Ceiling: 3000 feet AGL
Clouds: broken clouds at 3000 feet AGL
few clouds at 5000 feet AGL
Weather: SHRA  (rain showers)
Forecast for: SAEZ (BUENOS AIRES/EZE, AR)
Text: TAF SAEZ 201100Z 2012/2112 VRB05KT 5000 SHRA BKN010 FEW050CB OVC060 TX25/2018Z TN20/2109Z
Forecast period: 0000 to 0300 UTC 21 April 2018
Forecast type: BECOMING: Conditions expected to become as follows by 0300 UTC 21 April 2018
Winds: from the NE (50 degrees) at 8 MPH (7 knots; 3.6 m/s)
Visibility: 6 miles (9 km)
Ceiling: 1500 feet AGL
Clouds: broken clouds at 1500 feet AGL
overcast cloud deck at 5000 feet AGL
Weather: RA DZ  (rain, drizzle)
Forecast for: SAEZ (BUENOS AIRES/EZE, AR)
Text: TAF SAEZ 201100Z 2012/2112 VRB05KT 5000 SHRA BKN010 FEW050CB OVC060 TX25/2018Z TN20/2109Z
Forecast period: 0000 to 0300 UTC 21 April 2018
Forecast type: BECOMING: Conditions expected to become as follows by 0300 UTC 21 April 2018
Winds: from the NE (50 degrees) at 8 MPH (7 knots; 3.6 m/s)
Visibility: 6 miles (9 km)
Ceiling: 1500 feet AGL
Clouds: broken clouds at 1500 feet AGL
overcast cloud deck at 5000 feet AGL
Weather: RA DZ  (rain, drizzle)
Forecast for: SAEZ (BUENOS AIRES/EZE, AR)
Text: TAF SAEZ 201100Z 2012/2112 VRB05KT 5000 SHRA BKN010 FEW050CB OVC060 TX25/2018Z TN20/2109Z
Forecast period: 0300 to 1200 UTC 21 April 2018
Forecast type: BECOMING: Conditions expected to become as follows by 0600 UTC 21 April 2018
Winds: variable direction winds at 6 MPH (5 knots; 2.6 m/s)
Visibility: 3 miles (5 km)
Ceiling: 1500 feet AGL
Clouds: broken clouds at 1500 feet AGL
overcast cloud deck at 5000 feet AGL
Weather: BR  (mist)
Forecast for: SAEZ (BUENOS AIRES/EZE, AR)
Text: TAF SAEZ 201100Z 2012/2112 VRB05KT 5000 SHRA BKN010 FEW050CB OVC060 TX25/2018Z TN20/2109Z
Forecast period: 0300 to 1200 UTC 21 April 2018
Forecast type: BECOMING: Conditions expected to become as follows by 0600 UTC 21 April 2018
Winds: variable direction winds at 6 MPH (5 knots; 2.6 m/s)
Visibility: 3 miles (5 km)
Ceiling: 1500 feet AGL
Clouds: broken clouds at 1500 feet AGL
overcast cloud deck at 5000 feet AGL
Weather: BR  (mist)
Forecast for: SAEZ (BUENOS AIRES/EZE, AR)
Text: TAF SAEZ 201100Z 2012/2112 VRB05KT 5000 SHRA BKN010 FEW050CB OVC060 TX25/2018Z TN20/2109Z
Forecast period: 0600 to 1200 UTC 21 April 2018
Forecast type: PROBABLE: 30 percent likelihood of the following during this time
Visibility: 1.24 miles (2.00 km)
Ceiling: 300 feet AGL
Clouds: overcast cloud deck at 300 feet AGL
Weather: MIFG DZ  (shallow fog, drizzle)
Forecast for: SAEZ (BUENOS AIRES/EZE, AR)
Text: TAF SAEZ 201100Z 2012/2112 VRB05KT 5000 SHRA BKN010 FEW050CB OVC060 TX25/2018Z TN20/2109Z
Forecast period: 0600 to 1200 UTC 21 April 2018
Forecast type: PROBABLE: 30 percent likelihood of the following during this time
Visibility: 1.24 miles (2.00 km)
Ceiling: 300 feet AGL
Clouds: overcast cloud deck at 300 feet AGL
Weather: MIFG DZ  (shallow fog, drizzle)

 MAPA DO AEROPORTO

 INFORMAÇÕES DA PISTA
Pista 11 Tamanho da pista 10827 ft Largura da pista 197 ft
Elevação da pista 62 ft Ranhura da pista 0 ft Proa da pista 102
Pista 29 Tamanho da pista 10827 ft Largura da pista 197 ft
Elevação da pista 66 ft Ranhura da pista 0 ft Proa da pista 282
Pista 17 Tamanho da pista 10187 ft Largura da pista 148 ft
Elevação da pista 62 ft Ranhura da pista 0 ft Proa da pista 164
Pista 35 Tamanho da pista 10187 ft Largura da pista 148 ft
Elevação da pista 67 ft Ranhura da pista 984 ft Proa da pista 344

 FREQUÊNCIAS DO AEROPORTO
Tipo A/D Nome BAIRES CON Frequência 124.9 MHZ
Tipo APP Nome EZEIZA APP Frequência 119.9 MHZ
Tipo ATIS Nome ATIS Frequência 127.8 MHZ
Tipo GCCD Nome GND/CLNC D Frequência 121.75 MHZ
Tipo TWR Nome EZEIZA TWR Frequência 118.6 MHZ

 AUXÍLIOS DE NAVEGAÇÃO PRÓXIMOS AO AEROPORTO
Tipo VOR-DME Nome Ezeiza Frequência 116500 KHZ



Powered by Mercosul Lnhas Aereas